sensor_id;sensor_type;location;lat;lon;timestamp;P1;durP1;ratioP1;P2;durP2;ratioP2
59830;SDS011;45711;50.108;13.712;2023-08-06T00:01:19;9.43;;;5.78;;
59830;SDS011;45711;50.108;13.712;2023-08-06T00:03:46;8.30;;;5.82;;
59830;SDS011;45711;50.108;13.712;2023-08-06T00:06:11;10.32;;;5.60;;
59830;SDS011;45711;50.108;13.712;2023-08-06T00:08:37;8.00;;;5.82;;
59830;SDS011;45711;50.108;13.712;2023-08-06T00:11:03;13.27;;;5.53;;
59830;SDS011;45711;50.108;13.712;2023-08-06T00:13:28;8.32;;;6.07;;
59830;SDS011;45711;50.108;13.712;2023-08-06T00:15:55;7.25;;;5.47;;
59830;SDS011;45711;50.108;13.712;2023-08-06T00:18:21;7.10;;;5.65;;
59830;SDS011;45711;50.108;13.712;2023-08-06T00:20:46;9.85;;;5.60;;
59830;SDS011;45711;50.108;13.712;2023-08-06T00:23:12;6.55;;;5.35;;
59830;SDS011;45711;50.108;13.712;2023-08-06T00:25:37;9.25;;;6.60;;
59830;SDS011;45711;50.108;13.712;2023-08-06T00:28:03;11.05;;;5.72;;
59830;SDS011;45711;50.108;13.712;2023-08-06T00:30:29;7.18;;;5.55;;
59830;SDS011;45711;50.108;13.712;2023-08-06T00:32:56;14.13;;;6.07;;
59830;SDS011;45711;50.108;13.712;2023-08-06T00:35:21;9.27;;;6.30;;
59830;SDS011;45711;50.108;13.712;2023-08-06T00:37:47;7.78;;;6.15;;
59830;SDS011;45711;50.108;13.712;2023-08-06T00:40:12;11.48;;;6.28;;
59830;SDS011;45711;50.108;13.712;2023-08-06T00:42:38;7.78;;;6.05;;
59830;SDS011;45711;50.108;13.712;2023-08-06T00:45:04;9.73;;;6.30;;
59830;SDS011;45711;50.108;13.712;2023-08-06T00:47:30;8.57;;;6.18;;
59830;SDS011;45711;50.108;13.712;2023-08-06T00:49:57;8.60;;;6.38;;
59830;SDS011;45711;50.108;13.712;2023-08-06T00:52:23;9.25;;;6.10;;
59830;SDS011;45711;50.108;13.712;2023-08-06T00:54:49;8.15;;;6.50;;
59830;SDS011;45711;50.108;13.712;2023-08-06T00:57:15;7.90;;;6.05;;
59830;SDS011;45711;50.108;13.712;2023-08-06T00:59:40;23.35;;;6.32;;
59830;SDS011;45711;50.108;13.712;2023-08-06T01:02:06;10.57;;;6.32;;
59830;SDS011;45711;50.108;13.712;2023-08-06T01:04:31;9.60;;;6.47;;
59830;SDS011;45711;50.108;13.712;2023-08-06T01:07:02;11.85;;;5.88;;
59830;SDS011;45711;50.108;13.712;2023-08-06T01:09:39;12.50;;;6.15;;
59830;SDS011;45711;50.108;13.712;2023-08-06T01:12:18;9.82;;;5.97;;
59830;SDS011;45711;50.108;13.712;2023-08-06T01:14:52;10.50;;;6.70;;
59830;SDS011;45711;50.108;13.712;2023-08-06T01:17:23;9.63;;;6.25;;
59830;SDS011;45711;50.108;13.712;2023-08-06T01:19:51;11.25;;;6.90;;
59830;SDS011;45711;50.108;13.712;2023-08-06T01:22:18;11.10;;;6.40;;
59830;SDS011;45711;50.108;13.712;2023-08-06T01:24:45;10.85;;;6.55;;
59830;SDS011;45711;50.108;13.712;2023-08-06T01:27:14;10.13;;;6.95;;
59830;SDS011;45711;50.108;13.712;2023-08-06T01:29:47;11.45;;;6.82;;
59830;SDS011;45711;50.108;13.712;2023-08-06T01:32:18;14.23;;;6.97;;
59830;SDS011;45711;50.108;13.712;2023-08-06T01:34:46;11.02;;;6.78;;
59830;SDS011;45711;50.108;13.712;2023-08-06T01:37:13;10.82;;;6.20;;
59830;SDS011;45711;50.108;13.712;2023-08-06T01:39:41;11.25;;;6.43;;
59830;SDS011;45711;50.108;13.712;2023-08-06T01:42:07;12.27;;;6.53;;
59830;SDS011;45711;50.108;13.712;2023-08-06T01:44:33;12.05;;;6.57;;
59830;SDS011;45711;50.108;13.712;2023-08-06T01:46:59;9.38;;;6.85;;
59830;SDS011;45711;50.108;13.712;2023-08-06T01:49:24;7.80;;;6.07;;
59830;SDS011;45711;50.108;13.712;2023-08-06T01:51:50;11.20;;;6.35;;
59830;SDS011;45711;50.108;13.712;2023-08-06T01:54:16;13.77;;;6.65;;
59830;SDS011;45711;50.108;13.712;2023-08-06T01:56:42;14.48;;;6.70;;
59830;SDS011;45711;50.108;13.712;2023-08-06T01:59:08;10.60;;;6.38;;
59830;SDS011;45711;50.108;13.712;2023-08-06T02:01:34;14.27;;;6.30;;
59830;SDS011;45711;50.108;13.712;2023-08-06T02:03:59;13.75;;;6.82;;
59830;SDS011;45711;50.108;13.712;2023-08-06T02:06:25;10.32;;;6.32;;
59830;SDS011;45711;50.108;13.712;2023-08-06T02:08:50;11.25;;;6.65;;
59830;SDS011;45711;50.108;13.712;2023-08-06T02:11:16;9.77;;;6.55;;
59830;SDS011;45711;50.108;13.712;2023-08-06T02:13:42;13.73;;;6.43;;
59830;SDS011;45711;50.108;13.712;2023-08-06T02:16:08;8.70;;;6.70;;
59830;SDS011;45711;50.108;13.712;2023-08-06T02:18:34;9.82;;;6.80;;
59830;SDS011;45711;50.108;13.712;2023-08-06T02:20:59;9.55;;;6.70;;
59830;SDS011;45711;50.108;13.712;2023-08-06T02:23:25;10.90;;;6.47;;
59830;SDS011;45711;50.108;13.712;2023-08-06T02:25:56;9.45;;;6.43;;
59830;SDS011;45711;50.108;13.712;2023-08-06T02:28:23;9.80;;;6.25;;
59830;SDS011;45711;50.108;13.712;2023-08-06T02:30:50;11.15;;;6.63;;
59830;SDS011;45711;50.108;13.712;2023-08-06T02:33:16;10.02;;;5.75;;
59830;SDS011;45711;50.108;13.712;2023-08-06T02:35:41;14.80;;;6.55;;
59830;SDS011;45711;50.108;13.712;2023-08-06T02:38:07;12.05;;;6.40;;
59830;SDS011;45711;50.108;13.712;2023-08-06T02:40:32;8.27;;;5.57;;
59830;SDS011;45711;50.108;13.712;2023-08-06T02:42:58;7.43;;;6.00;;
59830;SDS011;45711;50.108;13.712;2023-08-06T02:45:23;7.65;;;5.82;;
59830;SDS011;45711;50.108;13.712;2023-08-06T02:47:50;9.00;;;6.40;;
59830;SDS011;45711;50.108;13.712;2023-08-06T02:50:16;10.88;;;6.05;;
59830;SDS011;45711;50.108;13.712;2023-08-06T02:52:41;15.73;;;6.28;;
59830;SDS011;45711;50.108;13.712;2023-08-06T02:55:07;10.23;;;6.25;;
59830;SDS011;45711;50.108;13.712;2023-08-06T02:57:33;12.80;;;6.00;;
59830;SDS011;45711;50.108;13.712;2023-08-06T02:59:58;10.05;;;5.68;;
59830;SDS011;45711;50.108;13.712;2023-08-06T03:02:24;9.02;;;5.93;;
59830;SDS011;45711;50.108;13.712;2023-08-06T03:04:51;9.50;;;6.15;;
59830;SDS011;45711;50.108;13.712;2023-08-06T03:07:16;10.55;;;5.72;;
59830;SDS011;45711;50.108;13.712;2023-08-06T03:09:42;12.60;;;5.50;;
59830;SDS011;45711;50.108;13.712;2023-08-06T03:12:08;6.45;;;5.47;;
59830;SDS011;45711;50.108;13.712;2023-08-06T03:14:33;10.25;;;5.75;;
59830;SDS011;45711;50.108;13.712;2023-08-06T03:17:02;9.93;;;6.03;;
59830;SDS011;45711;50.108;13.712;2023-08-06T03:19:27;9.52;;;5.80;;
59830;SDS011;45711;50.108;13.712;2023-08-06T03:22:00;7.38;;;5.90;;
59830;SDS011;45711;50.108;13.712;2023-08-06T03:24:31;8.13;;;6.00;;
59830;SDS011;45711;50.108;13.712;2023-08-06T03:27:01;8.55;;;6.05;;
59830;SDS011;45711;50.108;13.712;2023-08-06T03:29:27;6.78;;;5.60;;
59830;SDS011;45711;50.108;13.712;2023-08-06T03:31:53;7.95;;;6.00;;
59830;SDS011;45711;50.108;13.712;2023-08-06T03:34:22;10.38;;;5.80;;
59830;SDS011;45711;50.108;13.712;2023-08-06T03:36:51;12.75;;;6.25;;
59830;SDS011;45711;50.108;13.712;2023-08-06T03:39:19;10.82;;;6.15;;
59830;SDS011;45711;50.108;13.712;2023-08-06T03:41:45;10.80;;;6.72;;
59830;SDS011;45711;50.108;13.712;2023-08-06T03:44:16;11.00;;;6.70;;
59830;SDS011;45711;50.108;13.712;2023-08-06T03:46:42;7.63;;;5.93;;
59830;SDS011;45711;50.108;13.712;2023-08-06T03:49:16;13.38;;;6.65;;
59830;SDS011;45711;50.108;13.712;2023-08-06T03:51:42;8.70;;;5.95;;
59830;SDS011;45711;50.108;13.712;2023-08-06T03:54:10;9.82;;;6.30;;
59830;SDS011;45711;50.108;13.712;2023-08-06T03:59:31;8.05;;;6.00;;
59830;SDS011;45711;50.108;13.712;2023-08-06T04:02:05;10.23;;;5.80;;
59830;SDS011;45711;50.108;13.712;2023-08-06T04:04:35;10.55;;;5.90;;
59830;SDS011;45711;50.108;13.712;2023-08-06T04:07:31;8.32;;;6.22;;
59830;SDS011;45711;50.108;13.712;2023-08-06T04:10:04;8.15;;;6.57;;
59830;SDS011;45711;50.108;13.712;2023-08-06T04:12:36;6.70;;;5.95;;
59830;SDS011;45711;50.108;13.712;2023-08-06T04:15:05;7.72;;;5.65;;
59830;SDS011;45711;50.108;13.712;2023-08-06T04:17:33;13.50;;;6.20;;
59830;SDS011;45711;50.108;13.712;2023-08-06T04:20:01;9.57;;;5.88;;
59830;SDS011;45711;50.108;13.712;2023-08-06T04:22:42;11.73;;;6.03;;
59830;SDS011;45711;50.108;13.712;2023-08-06T04:25:12;7.80;;;5.40;;
59830;SDS011;45711;50.108;13.712;2023-08-06T04:27:40;9.57;;;5.30;;
59830;SDS011;45711;50.108;13.712;2023-08-06T04:30:07;8.88;;;5.38;;
59830;SDS011;45711;50.108;13.712;2023-08-06T04:32:33;9.23;;;5.97;;
59830;SDS011;45711;50.108;13.712;2023-08-06T04:34:59;6.60;;;5.35;;
59830;SDS011;45711;50.108;13.712;2023-08-06T04:37:25;8.77;;;5.75;;
59830;SDS011;45711;50.108;13.712;2023-08-06T04:39:50;8.27;;;6.07;;
59830;SDS011;45711;50.108;13.712;2023-08-06T04:44:53;9.85;;;6.15;;
59830;SDS011;45711;50.108;13.712;2023-08-06T04:47:19;6.60;;;5.80;;
59830;SDS011;45711;50.108;13.712;2023-08-06T04:49:45;8.88;;;6.30;;
59830;SDS011;45711;50.108;13.712;2023-08-06T04:52:16;7.82;;;6.25;;
59830;SDS011;45711;50.108;13.712;2023-08-06T04:54:44;9.40;;;6.68;;
59830;SDS011;45711;50.108;13.712;2023-08-06T04:57:10;11.57;;;6.80;;
59830;SDS011;45711;50.108;13.712;2023-08-06T04:59:39;14.35;;;6.70;;
59830;SDS011;45711;50.108;13.712;2023-08-06T05:02:06;9.98;;;6.47;;
59830;SDS011;45711;50.108;13.712;2023-08-06T05:04:32;8.70;;;6.78;;
59830;SDS011;45711;50.108;13.712;2023-08-06T05:06:58;10.75;;;6.20;;
59830;SDS011;45711;50.108;13.712;2023-08-06T05:09:31;14.10;;;6.78;;
59830;SDS011;45711;50.108;13.712;2023-08-06T05:12:03;8.75;;;6.32;;
59830;SDS011;45711;50.108;13.712;2023-08-06T05:17:30;9.20;;;6.60;;
59830;SDS011;45711;50.108;13.712;2023-08-06T05:20:21;8.95;;;6.90;;
59830;SDS011;45711;50.108;13.712;2023-08-06T05:22:54;8.98;;;6.55;;
59830;SDS011;45711;50.108;13.712;2023-08-06T05:25:22;8.32;;;6.43;;
59830;SDS011;45711;50.108;13.712;2023-08-06T05:28:01;12.35;;;6.32;;
59830;SDS011;45711;50.108;13.712;2023-08-06T05:30:38;9.48;;;6.57;;
59830;SDS011;45711;50.108;13.712;2023-08-06T05:33:09;9.82;;;6.57;;
59830;SDS011;45711;50.108;13.712;2023-08-06T05:35:37;11.75;;;6.63;;
59830;SDS011;45711;50.108;13.712;2023-08-06T05:38:03;7.93;;;6.43;;
59830;SDS011;45711;50.108;13.712;2023-08-06T05:40:38;8.07;;;6.43;;
59830;SDS011;45711;50.108;13.712;2023-08-06T05:43:05;9.45;;;6.00;;
59830;SDS011;45711;50.108;13.712;2023-08-06T05:45:30;9.45;;;6.70;;
59830;SDS011;45711;50.108;13.712;2023-08-06T05:47:56;10.45;;;6.18;;
59830;SDS011;45711;50.108;13.712;2023-08-06T05:50:24;10.25;;;6.53;;
59830;SDS011;45711;50.108;13.712;2023-08-06T05:52:53;7.78;;;6.35;;
59830;SDS011;45711;50.108;13.712;2023-08-06T05:55:19;8.63;;;6.68;;
59830;SDS011;45711;50.108;13.712;2023-08-06T05:57:46;9.45;;;6.45;;
59830;SDS011;45711;50.108;13.712;2023-08-06T06:00:13;8.65;;;6.47;;
59830;SDS011;45711;50.108;13.712;2023-08-06T06:02:39;9.85;;;6.30;;
59830;SDS011;45711;50.108;13.712;2023-08-06T06:05:09;9.43;;;6.68;;
59830;SDS011;45711;50.108;13.712;2023-08-06T06:07:37;10.20;;;6.47;;
59830;SDS011;45711;50.108;13.712;2023-08-06T06:10:05;9.23;;;6.53;;
59830;SDS011;45711;50.108;13.712;2023-08-06T06:12:31;11.77;;;6.43;;
59830;SDS011;45711;50.108;13.712;2023-08-06T06:15:00;9.68;;;6.10;;
59830;SDS011;45711;50.108;13.712;2023-08-06T06:17:26;7.15;;;5.28;;
59830;SDS011;45711;50.108;13.712;2023-08-06T06:19:52;7.93;;;5.57;;
59830;SDS011;45711;50.108;13.712;2023-08-06T06:22:17;9.27;;;5.90;;
59830;SDS011;45711;50.108;13.712;2023-08-06T06:24:44;6.15;;;5.18;;
59830;SDS011;45711;50.108;13.712;2023-08-06T06:27:10;7.25;;;5.03;;
59830;SDS011;45711;50.108;13.712;2023-08-06T06:29:35;7.93;;;5.10;;
59830;SDS011;45711;50.108;13.712;2023-08-06T06:32:01;10.00;;;4.65;;
59830;SDS011;45711;50.108;13.712;2023-08-06T06:34:27;7.78;;;4.10;;
59830;SDS011;45711;50.108;13.712;2023-08-06T06:36:52;5.78;;;4.55;;
59830;SDS011;45711;50.108;13.712;2023-08-06T06:39:18;6.00;;;4.28;;
59830;SDS011;45711;50.108;13.712;2023-08-06T06:41:47;6.13;;;4.60;;
59830;SDS011;45711;50.108;13.712;2023-08-06T06:44:13;5.32;;;4.30;;
59830;SDS011;45711;50.108;13.712;2023-08-06T06:46:40;5.18;;;4.13;;
59830;SDS011;45711;50.108;13.712;2023-08-06T06:49:09;4.38;;;3.50;;
59830;SDS011;45711;50.108;13.712;2023-08-06T06:51:35;4.25;;;3.85;;
59830;SDS011;45711;50.108;13.712;2023-08-06T06:54:00;6.72;;;4.13;;
59830;SDS011;45711;50.108;13.712;2023-08-06T06:56:26;5.00;;;4.03;;
59830;SDS011;45711;50.108;13.712;2023-08-06T06:58:53;8.48;;;3.85;;
59830;SDS011;45711;50.108;13.712;2023-08-06T07:01:19;10.85;;;3.53;;
59830;SDS011;45711;50.108;13.712;2023-08-06T07:03:45;4.78;;;3.45;;
59830;SDS011;45711;50.108;13.712;2023-08-06T07:08:57;6.85;;;3.28;;
59830;SDS011;45711;50.108;13.712;2023-08-06T07:11:25;7.35;;;2.90;;
59830;SDS011;45711;50.108;13.712;2023-08-06T07:13:56;4.70;;;3.17;;
59830;SDS011;45711;50.108;13.712;2023-08-06T07:16:28;9.88;;;3.15;;
59830;SDS011;45711;50.108;13.712;2023-08-06T07:18:54;4.47;;;3.00;;
59830;SDS011;45711;50.108;13.712;2023-08-06T07:21:20;6.43;;;3.10;;
59830;SDS011;45711;50.108;13.712;2023-08-06T07:23:46;3.17;;;2.60;;
59830;SDS011;45711;50.108;13.712;2023-08-06T07:26:11;3.42;;;2.70;;
59830;SDS011;45711;50.108;13.712;2023-08-06T07:28:38;5.22;;;2.83;;
59830;SDS011;45711;50.108;13.712;2023-08-06T07:31:13;2.78;;;2.38;;
59830;SDS011;45711;50.108;13.712;2023-08-06T07:33:59;3.72;;;2.30;;
59830;SDS011;45711;50.108;13.712;2023-08-06T07:36:30;2.60;;;2.10;;
59830;SDS011;45711;50.108;13.712;2023-08-06T07:47:49;2.10;;;1.90;;
59830;SDS011;45711;50.108;13.712;2023-08-06T07:48:41;2.30;;;2.10;;
59830;SDS011;45711;50.108;13.712;2023-08-06T07:51:06;4.53;;;2.30;;
59830;SDS011;45711;50.108;13.712;2023-08-06T07:53:32;2.28;;;2.00;;
59830;SDS011;45711;50.108;13.712;2023-08-06T07:56:00;2.85;;;1.85;;
59830;SDS011;45711;50.108;13.712;2023-08-06T07:58:27;5.35;;;2.20;;
59830;SDS011;45711;50.108;13.712;2023-08-06T08:00:54;3.15;;;2.10;;
59830;SDS011;45711;50.108;13.712;2023-08-06T08:03:20;6.82;;;2.10;;
59830;SDS011;45711;50.108;13.712;2023-08-06T08:05:47;2.60;;;2.17;;
59830;SDS011;45711;50.108;13.712;2023-08-06T08:08:13;2.00;;;1.80;;
59830;SDS011;45711;50.108;13.712;2023-08-06T08:10:39;2.42;;;2.17;;
59830;SDS011;45711;50.108;13.712;2023-08-06T08:13:04;3.78;;;1.70;;
59830;SDS011;45711;50.108;13.712;2023-08-06T08:15:31;4.63;;;1.88;;
59830;SDS011;45711;50.108;13.712;2023-08-06T08:20:40;2.22;;;1.65;;
59830;SDS011;45711;50.108;13.712;2023-08-06T08:23:10;2.22;;;1.67;;
59830;SDS011;45711;50.108;13.712;2023-08-06T08:25:37;1.90;;;1.70;;
59830;SDS011;45711;50.108;13.712;2023-08-06T08:28:03;1.88;;;1.30;;
59830;SDS011;45711;50.108;13.712;2023-08-06T08:30:29;2.67;;;1.50;;
59830;SDS011;45711;50.108;13.712;2023-08-06T08:32:54;3.83;;;1.20;;
59830;SDS011;45711;50.108;13.712;2023-08-06T08:35:20;2.20;;;1.48;;
59830;SDS011;45711;50.108;13.712;2023-08-06T08:37:46;5.13;;;1.30;;
59830;SDS011;45711;50.108;13.712;2023-08-06T08:50:34;1.83;;;1.35;;
59830;SDS011;45711;50.108;13.712;2023-08-06T08:53:03;3.03;;;1.30;;
59830;SDS011;45711;50.108;13.712;2023-08-06T08:55:29;3.47;;;2.67;;
59830;SDS011;45711;50.108;13.712;2023-08-06T08:57:58;2.65;;;1.20;;
59830;SDS011;45711;50.108;13.712;2023-08-06T09:00:26;3.22;;;1.33;;
59830;SDS011;45711;50.108;13.712;2023-08-06T09:08:08;1.63;;;1.15;;
59830;SDS011;45711;50.108;13.712;2023-08-06T09:10:36;3.15;;;1.10;;
59830;SDS011;45711;50.108;13.712;2023-08-06T09:13:13;2.55;;;1.05;;
59830;SDS011;45711;50.108;13.712;2023-08-06T09:15:41;2.45;;;1.20;;
59830;SDS011;45711;50.108;13.712;2023-08-06T09:18:09;4.63;;;1.10;;
59830;SDS011;45711;50.108;13.712;2023-08-06T09:20:36;1.02;;;0.93;;
59830;SDS011;45711;50.108;13.712;2023-08-06T09:23:10;5.70;;;1.00;;
59830;SDS011;45711;50.108;13.712;2023-08-06T09:25:38;1.30;;;1.20;;
59830;SDS011;45711;50.108;13.712;2023-08-06T09:28:06;2.25;;;1.13;;
59830;SDS011;45711;50.108;13.712;2023-08-06T09:30:33;1.20;;;1.10;;
59830;SDS011;45711;50.108;13.712;2023-08-06T09:32:59;1.10;;;1.00;;
59830;SDS011;45711;50.108;13.712;2023-08-06T09:35:29;3.30;;;1.17;;
59830;SDS011;45711;50.108;13.712;2023-08-06T09:37:55;1.10;;;1.00;;
59830;SDS011;45711;50.108;13.712;2023-08-06T09:40:26;5.25;;;1.10;;
59830;SDS011;45711;50.108;13.712;2023-08-06T09:42:53;1.35;;;0.95;;
59830;SDS011;45711;50.108;13.712;2023-08-06T09:45:19;3.53;;;1.00;;
59830;SDS011;45711;50.108;13.712;2023-08-06T09:47:46;1.63;;;1.15;;
59830;SDS011;45711;50.108;13.712;2023-08-06T09:50:21;1.73;;;1.25;;
59830;SDS011;45711;50.108;13.712;2023-08-06T09:52:47;1.30;;;1.20;;
59830;SDS011;45711;50.108;13.712;2023-08-06T09:55:14;3.40;;;1.40;;
59830;SDS011;45711;50.108;13.712;2023-08-06T09:57:41;1.30;;;1.20;;
59830;SDS011;45711;50.108;13.712;2023-08-06T10:00:11;1.98;;;1.33;;
59830;SDS011;45711;50.108;13.712;2023-08-06T10:02:38;3.22;;;1.20;;
59830;SDS011;45711;50.108;13.712;2023-08-06T10:05:04;1.45;;;1.20;;
59830;SDS011;45711;50.108;13.712;2023-08-06T10:10:32;2.65;;;1.75;;
59830;SDS011;45711;50.108;13.712;2023-08-06T10:13:01;1.20;;;1.10;;
59830;SDS011;45711;50.108;13.712;2023-08-06T10:15:30;1.30;;;1.20;;
59830;SDS011;45711;50.108;13.712;2023-08-06T10:17:57;5.28;;;1.42;;
59830;SDS011;45711;50.108;13.712;2023-08-06T10:20:26;2.65;;;1.30;;
59830;SDS011;45711;50.108;13.712;2023-08-06T10:22:59;3.53;;;1.30;;
59830;SDS011;45711;50.108;13.712;2023-08-06T10:25:26;9.57;;;1.40;;
59830;SDS011;45711;50.108;13.712;2023-08-06T10:27:56;1.48;;;1.13;;
59830;SDS011;45711;50.108;13.712;2023-08-06T10:30:28;1.30;;;1.08;;
59830;SDS011;45711;50.108;13.712;2023-08-06T10:32:57;1.50;;;1.40;;
59830;SDS011;45711;50.108;13.712;2023-08-06T10:35:34;1.52;;;1.25;;
59830;SDS011;45711;50.108;13.712;2023-08-06T10:38:04;1.85;;;1.40;;
59830;SDS011;45711;50.108;13.712;2023-08-06T10:40:36;3.67;;;1.20;;
59830;SDS011;45711;50.108;13.712;2023-08-06T10:43:07;2.50;;;1.40;;
59830;SDS011;45711;50.108;13.712;2023-08-06T10:45:37;2.75;;;1.40;;
59830;SDS011;45711;50.108;13.712;2023-08-06T10:48:03;3.22;;;1.40;;
59830;SDS011;45711;50.108;13.712;2023-08-06T10:50:31;2.70;;;1.30;;
59830;SDS011;45711;50.108;13.712;2023-08-06T10:52:57;1.95;;;1.40;;
59830;SDS011;45711;50.108;13.712;2023-08-06T10:55:31;2.80;;;1.38;;
59830;SDS011;45711;50.108;13.712;2023-08-06T10:57:57;2.95;;;1.67;;
59830;SDS011;45711;50.108;13.712;2023-08-06T11:00:23;1.95;;;1.27;;
59830;SDS011;45711;50.108;13.712;2023-08-06T11:02:51;1.23;;;1.13;;
59830;SDS011;45711;50.108;13.712;2023-08-06T11:05:17;2.90;;;2.00;;
59830;SDS011;45711;50.108;13.712;2023-08-06T11:07:43;4.03;;;1.90;;
59830;SDS011;45711;50.108;13.712;2023-08-06T11:10:10;4.60;;;1.60;;
59830;SDS011;45711;50.108;13.712;2023-08-06T11:12:38;1.65;;;1.40;;
59830;SDS011;45711;50.108;13.712;2023-08-06T11:15:07;2.30;;;1.70;;
59830;SDS011;45711;50.108;13.712;2023-08-06T11:17:33;2.72;;;1.67;;
59830;SDS011;45711;50.108;13.712;2023-08-06T11:20:01;4.50;;;1.75;;
59830;SDS011;45711;50.108;13.712;2023-08-06T11:22:27;2.45;;;1.63;;
59830;SDS011;45711;50.108;13.712;2023-08-06T11:24:53;4.60;;;1.60;;
59830;SDS011;45711;50.108;13.712;2023-08-06T11:27:19;1.90;;;1.50;;
59830;SDS011;45711;50.108;13.712;2023-08-06T11:29:45;1.55;;;1.42;;
59830;SDS011;45711;50.108;13.712;2023-08-06T11:32:11;3.33;;;1.60;;
59830;SDS011;45711;50.108;13.712;2023-08-06T11:34:37;4.30;;;1.55;;
59830;SDS011;45711;50.108;13.712;2023-08-06T11:37:05;3.28;;;1.40;;
59830;SDS011;45711;50.108;13.712;2023-08-06T11:39:32;3.97;;;1.55;;
59830;SDS011;45711;50.108;13.712;2023-08-06T11:41:58;2.13;;;1.40;;
59830;SDS011;45711;50.108;13.712;2023-08-06T11:44:29;1.60;;;1.48;;
59830;SDS011;45711;50.108;13.712;2023-08-06T11:47:03;1.90;;;1.45;;
59830;SDS011;45711;50.108;13.712;2023-08-06T11:49:40;1.67;;;1.15;;
59830;SDS011;45711;50.108;13.712;2023-08-06T11:52:13;2.83;;;1.30;;
59830;SDS011;45711;50.108;13.712;2023-08-06T11:54:41;2.50;;;1.25;;
59830;SDS011;45711;50.108;13.712;2023-08-06T11:57:07;1.85;;;1.30;;
59830;SDS011;45711;50.108;13.712;2023-08-06T11:59:33;1.63;;;1.40;;
59830;SDS011;45711;50.108;13.712;2023-08-06T12:02:00;1.75;;;1.40;;
59830;SDS011;45711;50.108;13.712;2023-08-06T12:04:26;2.33;;;1.40;;
59830;SDS011;45711;50.108;13.712;2023-08-06T12:06:52;2.28;;;1.20;;
59830;SDS011;45711;50.108;13.712;2023-08-06T12:09:19;3.00;;;1.20;;
59830;SDS011;45711;50.108;13.712;2023-08-06T12:11:45;4.53;;;1.10;;
59830;SDS011;45711;50.108;13.712;2023-08-06T12:14:11;6.47;;;1.38;;
59830;SDS011;45711;50.108;13.712;2023-08-06T12:16:37;5.28;;;1.23;;
59830;SDS011;45711;50.108;13.712;2023-08-06T12:19:03;1.77;;;1.15;;
59830;SDS011;45711;50.108;13.712;2023-08-06T12:21:29;2.08;;;1.45;;
59830;SDS011;45711;50.108;13.712;2023-08-06T12:23:55;6.82;;;1.30;;
59830;SDS011;45711;50.108;13.712;2023-08-06T12:26:22;1.95;;;1.17;;
59830;SDS011;45711;50.108;13.712;2023-08-06T12:28:47;1.95;;;1.23;;
59830;SDS011;45711;50.108;13.712;2023-08-06T12:31:14;1.88;;;1.38;;
59830;SDS011;45711;50.108;13.712;2023-08-06T12:33:40;2.63;;;1.25;;
59830;SDS011;45711;50.108;13.712;2023-08-06T12:36:05;1.80;;;1.27;;
59830;SDS011;45711;50.108;13.712;2023-08-06T12:38:31;2.65;;;1.20;;
59830;SDS011;45711;50.108;13.712;2023-08-06T12:40:58;1.50;;;1.10;;
59830;SDS011;45711;50.108;13.712;2023-08-06T12:43:25;3.15;;;1.10;;
59830;SDS011;45711;50.108;13.712;2023-08-06T12:45:51;1.77;;;1.27;;
59830;SDS011;45711;50.108;13.712;2023-08-06T12:48:16;1.60;;;1.08;;
59830;SDS011;45711;50.108;13.712;2023-08-06T12:50:42;2.08;;;1.25;;
59830;SDS011;45711;50.108;13.712;2023-08-06T12:53:08;8.38;;;1.75;;
59830;SDS011;45711;50.108;13.712;2023-08-06T12:55:34;2.95;;;1.20;;
59830;SDS011;45711;50.108;13.712;2023-08-06T12:57:59;2.38;;;1.15;;
59830;SDS011;45711;50.108;13.712;2023-08-06T13:00:26;3.35;;;1.10;;
59830;SDS011;45711;50.108;13.712;2023-08-06T13:02:52;1.80;;;1.10;;
59830;SDS011;45711;50.108;13.712;2023-08-06T13:05:18;4.22;;;1.10;;
59830;SDS011;45711;50.108;13.712;2023-08-06T13:07:43;1.90;;;1.13;;
59830;SDS011;45711;50.108;13.712;2023-08-06T13:10:09;2.53;;;1.08;;
59830;SDS011;45711;50.108;13.712;2023-08-06T13:12:35;1.67;;;1.23;;
59830;SDS011;45711;50.108;13.712;2023-08-06T13:15:00;4.75;;;1.30;;
59830;SDS011;45711;50.108;13.712;2023-08-06T13:17:27;6.18;;;1.42;;
59830;SDS011;45711;50.108;13.712;2023-08-06T13:19:53;5.03;;;1.75;;
59830;SDS011;45711;50.108;13.712;2023-08-06T13:22:19;2.40;;;1.10;;
59830;SDS011;45711;50.108;13.712;2023-08-06T13:27:13;5.22;;;1.60;;
59830;SDS011;45711;50.108;13.712;2023-08-06T13:29:39;2.08;;;1.20;;
59830;SDS011;45711;50.108;13.712;2023-08-06T13:32:05;2.20;;;1.02;;
59830;SDS011;45711;50.108;13.712;2023-08-06T13:34:32;3.22;;;1.02;;
59830;SDS011;45711;50.108;13.712;2023-08-06T13:36:58;2.67;;;1.27;;
59830;SDS011;45711;50.108;13.712;2023-08-06T13:39:23;2.60;;;1.20;;
59830;SDS011;45711;50.108;13.712;2023-08-06T13:41:51;6.35;;;1.13;;
59830;SDS011;45711;50.108;13.712;2023-08-06T13:44:17;2.55;;;1.10;;
59830;SDS011;45711;50.108;13.712;2023-08-06T13:46:43;2.17;;;1.13;;
59830;SDS011;45711;50.108;13.712;2023-08-06T13:49:08;2.00;;;1.30;;
59830;SDS011;45711;50.108;13.712;2023-08-06T13:51:35;4.55;;;1.50;;
59830;SDS011;45711;50.108;13.712;2023-08-06T13:54:01;7.97;;;1.63;;
59830;SDS011;45711;50.108;13.712;2023-08-06T13:56:27;11.82;;;2.20;;
59830;SDS011;45711;50.108;13.712;2023-08-06T13:58:54;4.78;;;2.00;;
59830;SDS011;45711;50.108;13.712;2023-08-06T14:01:20;7.57;;;1.77;;
59830;SDS011;45711;50.108;13.712;2023-08-06T14:03:45;5.95;;;2.35;;
59830;SDS011;45711;50.108;13.712;2023-08-06T14:06:11;5.68;;;1.55;;
59830;SDS011;45711;50.108;13.712;2023-08-06T14:08:38;5.63;;;1.70;;
59830;SDS011;45711;50.108;13.712;2023-08-06T14:11:04;5.97;;;1.38;;
59830;SDS011;45711;50.108;13.712;2023-08-06T14:13:31;4.53;;;1.60;;
59830;SDS011;45711;50.108;13.712;2023-08-06T14:15:57;3.33;;;1.40;;
59830;SDS011;45711;50.108;13.712;2023-08-06T14:18:40;3.17;;;1.00;;
59830;SDS011;45711;50.108;13.712;2023-08-06T14:21:06;2.03;;;1.13;;
59830;SDS011;45711;50.108;13.712;2023-08-06T14:23:35;4.38;;;1.08;;
59830;SDS011;45711;50.108;13.712;2023-08-06T14:26:02;3.28;;;1.10;;
59830;SDS011;45711;50.108;13.712;2023-08-06T14:28:30;3.38;;;1.33;;
59830;SDS011;45711;50.108;13.712;2023-08-06T14:30:56;5.45;;;1.10;;
59830;SDS011;45711;50.108;13.712;2023-08-06T14:33:22;9.20;;;4.88;;
59830;SDS011;45711;50.108;13.712;2023-08-06T14:35:47;3.28;;;1.65;;
59830;SDS011;45711;50.108;13.712;2023-08-06T14:38:13;5.30;;;1.55;;
59830;SDS011;45711;50.108;13.712;2023-08-06T14:40:39;6.82;;;1.95;;
59830;SDS011;45711;50.108;13.712;2023-08-06T14:43:06;3.85;;;1.50;;
59830;SDS011;45711;50.108;13.712;2023-08-06T14:45:32;6.15;;;2.08;;
59830;SDS011;45711;50.108;13.712;2023-08-06T14:48:00;7.40;;;2.05;;
59830;SDS011;45711;50.108;13.712;2023-08-06T14:50:25;2.47;;;1.60;;
59830;SDS011;45711;50.108;13.712;2023-08-06T14:52:51;3.42;;;1.85;;
59830;SDS011;45711;50.108;13.712;2023-08-06T14:57:52;3.13;;;1.60;;
59830;SDS011;45711;50.108;13.712;2023-08-06T15:00:19;4.00;;;1.40;;
59830;SDS011;45711;50.108;13.712;2023-08-06T15:02:45;4.90;;;1.33;;
59830;SDS011;45711;50.108;13.712;2023-08-06T15:05:14;6.63;;;2.05;;
59830;SDS011;45711;50.108;13.712;2023-08-06T15:07:39;8.60;;;2.63;;
59830;SDS011;45711;50.108;13.712;2023-08-06T15:10:05;4.35;;;1.80;;
59830;SDS011;45711;50.108;13.712;2023-08-06T15:12:31;5.43;;;1.70;;
59830;SDS011;45711;50.108;13.712;2023-08-06T15:14:57;4.38;;;1.50;;
59830;SDS011;45711;50.108;13.712;2023-08-06T15:17:24;12.98;;;1.95;;